Time;durP1;ratioP1;P1;durP2;ratioP2;P2;SDS_P1;SDS_P2;PMS_P1;PMS_P2;Temp;Humidity;BMP_temperature;BMP_pressure;BME280_temperature;BME280_humidity;BME280_pressure;Samples;Min_cycle;Max_cycle;Signal;HPM_P1;HPM_P2
2021/12/09 08:17:33;;;;;;;42.73;23.93;;;0.80;99.90;;;;;;5111354;27;20161;-60
2021/12/09 08:19:53;;;;;;;46.03;25.70;;;1.00;99.90;;;;;;5133001;27;20203;-62
2021/12/09 08:22:18;;;;;;;52.05;24.38;;;1.00;99.90;;;;;;5110407;28;20480;-61
2021/12/09 08:24:44;;;;;;;38.95;22.20;;;1.00;99.90;;;;;;5110798;28;20055;-59
2021/12/09 08:27:10;;;;;;;36.13;21.50;;;1.00;99.90;;;;;;5110370;28;20130;-59
2021/12/09 08:29:35;;;;;;;35.78;20.35;;;1.00;99.90;;;;;;5111436;28;20134;-59
2021/12/09 08:32:01;;;;;;;31.90;16.88;;;1.00;99.90;;;;;;5095075;28;20479;-61
2021/12/09 08:35:10;;;;;;;34.03;17.02;;;1.10;99.90;;;;;;5102201;28;20048;-69
2021/12/09 08:37:50;;;;;;;29.83;16.27;;;1.00;99.90;;;;;;5090687;28;20052;-60
2021/12/09 08:40:17;;;;;;;34.67;15.00;;;1.10;99.90;;;;;;5083324;28;20153;-60
2021/12/09 08:42:43;;;;;;;27.60;14.57;;;1.10;99.90;;;;;;5097844;28;20051;-60
2021/12/09 08:45:10;;;;;;;26.63;14.32;;;1.10;99.90;;;;;;5098396;28;20048;-60
2021/12/09 08:47:41;;;;;;;25.13;14.80;;;1.10;99.90;;;;;;5098497;28;20066;-63
2021/12/09 08:50:10;;;;;;;28.75;13.95;;;1.10;99.90;;;;;;5089932;28;20048;-62
2021/12/09 08:52:36;;;;;;;30.08;14.20;;;1.10;99.90;;;;;;5089510;28;20044;-59
2021/12/09 08:55:03;;;;;;;26.60;13.25;;;1.20;99.90;;;;;;5089091;28;20087;-60
2021/12/09 08:57:31;;;;;;;27.63;13.57;;;1.20;99.90;;;;;;5088375;28;20045;-61
2021/12/09 08:59:57;;;;;;;22.63;12.25;;;1.20;99.90;;;;;;5089686;28;20522;-61
2021/12/09 09:02:23;;;;;;;21.10;12.43;;;1.20;99.90;;;;;;5072411;28;20051;-64
2021/12/09 09:04:49;;;;;;;24.02;12.60;;;1.20;99.90;;;;;;5089674;28;20052;-60
2021/12/09 09:07:14;;;;;;;22.85;12.13;;;1.20;99.90;;;;;;5090326;28;20055;-60
2021/12/09 09:09:40;;;;;;;29.08;12.07;;;1.30;99.90;;;;;;5088987;28;20056;-62
2021/12/09 09:12:09;;;;;;;23.55;11.88;;;1.30;99.90;;;;;;5088732;28;20044;-64
2021/12/09 09:14:36;;;;;;;30.02;12.30;;;1.30;99.90;;;;;;5090189;28;20048;-60
2021/12/09 09:17:02;;;;;;;22.73;11.60;;;1.30;99.90;;;;;;5109805;28;20055;-59
2021/12/09 09:19:28;;;;;;;21.48;12.13;;;1.40;99.90;;;;;;5109810;28;20176;-60
2021/12/09 09:21:54;;;;;;;20.73;11.38;;;1.40;99.90;;;;;;5108613;28;20081;-60
2021/12/09 09:24:20;;;;;;;22.95;10.00;;;1.40;99.90;;;;;;5109745;28;20108;-59
2021/12/09 09:26:46;;;;;;;23.00;10.43;;;1.50;99.90;;;;;;5103591;28;20048;-60
2021/12/09 09:29:12;;;;;;;21.38;10.55;;;1.50;99.90;;;;;;5096727;28;20044;-60
2021/12/09 09:31:40;;;;;;;19.52;10.60;;;1.50;99.90;;;;;;5095638;28;20128;-60
2021/12/09 09:34:06;;;;;;;26.38;11.35;;;1.50;99.90;;;;;;5095176;28;20054;-60
2021/12/09 09:36:33;;;;;;;23.88;10.82;;;1.60;99.90;;;;;;5095994;28;20487;-60
2021/12/09 09:39:17;;;;;;;21.17;10.45;;;1.60;99.90;;;;;;5096507;28;20048;-60
2021/12/09 09:44:56;;;;;;;21.88;10.95;;;1.70;99.90;;;;;;5071267;28;20047;-60
2021/12/09 09:47:24;;;;;;;27.30;11.55;;;1.70;99.90;;;;;;5095408;28;20063;-59
2021/12/09 09:49:50;;;;;;;25.42;11.05;;;1.80;99.90;;;;;;5095370;28;20048;-60
2021/12/09 09:52:16;;;;;;;18.48;10.68;;;1.80;99.90;;;;;;5095165;28;20101;-60
2021/12/09 09:54:42;;;;;;;18.95;10.68;;;1.80;99.90;;;;;;5095396;28;20429;-60
2021/12/09 09:57:09;;;;;;;24.95;11.10;;;1.80;99.90;;;;;;5096426;28;20532;-60
2021/12/09 09:59:36;;;;;;;20.85;10.80;;;1.90;99.90;;;;;;5095292;28;20043;-60
2021/12/09 10:02:14;;;;;;;18.80;10.50;;;1.90;99.90;;;;;;5095276;28;20052;-62
2021/12/09 10:04:47;;;;;;;16.13;9.55;;;1.90;99.90;;;;;;5095794;28;20052;-60
2021/12/09 10:07:15;;;;;;;22.27;10.27;;;2.00;99.90;;;;;;5095350;28;20067;-62
2021/12/09 10:09:41;;;;;;;19.52;9.95;;;2.00;99.90;;;;;;5095631;28;20491;-61
2021/12/09 10:12:08;;;;;;;17.50;9.63;;;2.00;99.90;;;;;;5096117;28;20083;-61
2021/12/09 10:14:36;;;;;;;16.98;10.30;;;2.00;99.90;;;;;;5094359;28;20056;-61
2021/12/09 10:17:23;;;;;;;19.42;10.30;;;2.00;99.90;;;;;;5094712;28;20052;-61
2021/12/09 10:19:59;;;;;;;;;;;2.10;99.90;;;;;;5095656;28;20044;-62
2021/12/09 10:22:29;;;;;;;20.15;10.20;;;2.20;99.90;;;;;;5095380;28;19927;-60
2021/12/09 10:24:58;;;;;;;23.02;10.88;;;2.20;99.90;;;;;;5094908;28;20048;-61
2021/12/09 10:27:33;;;;;;;22.73;11.05;;;2.20;99.90;;;;;;5077982;28;20048;-61
2021/12/09 10:30:14;;;;;;;19.55;11.25;;;2.20;99.90;;;;;;5096189;28;20069;-60
2021/12/09 10:32:42;;;;;;;25.42;10.95;;;2.30;99.90;;;;;;5095473;28;20051;-61
2021/12/09 10:35:09;;;;;;;20.70;11.02;;;2.20;99.90;;;;;;5094204;28;20043;-61
2021/12/09 10:37:37;;;;;;;24.48;12.07;;;2.20;99.90;;;;;;5093910;28;20072;-61
2021/12/09 10:40:09;;;;;;;28.42;12.65;;;2.20;99.90;;;;;;5093511;28;20544;-60
2021/12/09 10:42:37;;;;;;;24.65;12.70;;;2.20;99.90;;;;;;5094123;28;20055;-60
2021/12/09 10:45:31;;;;;;;23.00;12.65;;;2.20;99.90;;;;;;5094658;28;20392;-60
2021/12/09 10:48:04;;;;;;;30.98;13.73;;;2.30;99.90;;;;;;5094674;28;20062;-60
2021/12/09 10:55:54;;;;;;;25.77;13.98;;;2.40;99.90;;;;;;5079259;28;20048;-61
2021/12/09 10:58:26;;;;;;;27.63;13.68;;;2.50;99.90;;;;;;5093936;28;20101;-59
2021/12/09 11:00:54;;;;;;;25.63;12.93;;;2.50;99.90;;;;;;5095300;28;20090;-59
2021/12/09 11:03:25;;;;;;;25.73;13.43;;;2.50;99.90;;;;;;5077005;28;20134;-60
2021/12/09 11:05:59;;;;;;;24.20;13.05;;;2.50;99.90;;;;;;5094853;28;20044;-60
2021/12/09 11:08:30;;;;;;;29.15;13.57;;;2.60;99.90;;;;;;5086624;28;20109;-61
2021/12/09 11:10:58;;;;;;;30.85;14.25;;;2.60;99.90;;;;;;5074454;28;20044;-61
2021/12/09 11:13:24;;;;;;;30.27;14.30;;;2.60;99.90;;;;;;5074301;28;20560;-60
2021/12/09 11:15:56;;;;;;;30.90;14.20;;;2.60;99.90;;;;;;5073031;28;20131;-60
2021/12/09 11:18:45;;;;;;;28.30;13.77;;;2.60;99.90;;;;;;5074916;28;20050;-60
2021/12/09 11:21:21;;;;;;;29.45;13.93;;;2.60;99.90;;;;;;5073245;28;20053;-60
2021/12/09 11:23:52;;;;;;;27.50;14.23;;;2.60;99.90;;;;;;5073077;28;20044;-60
2021/12/09 11:26:49;;;;;;;28.90;14.32;;;2.60;99.90;;;;;;5074786;28;20135;-60
2021/12/09 11:29:38;;;;;;;32.03;15.07;;;2.60;99.90;;;;;;5072852;28;20058;-61
2021/12/09 11:34:57;;;;;;;30.20;14.57;;;2.70;99.90;;;;;;5074116;28;20069;-61
2021/12/09 11:39:57;;;;;;;26.52;14.35;;;2.80;99.90;;;;;;5073830;28;20135;-62
2021/12/09 11:42:31;;;;;;;28.38;14.65;;;2.70;99.90;;;;;;5072777;28;20056;-61
2021/12/09 11:44:57;;;;;;;30.45;14.75;;;2.80;99.90;;;;;;5081993;28;20048;-61
2021/12/09 11:47:23;;;;;;;;;;;2.80;99.90;;;;;;5093577;28;20052;-61
2021/12/09 11:49:51;;;;;;;27.60;13.30;;;2.80;99.90;;;;;;5076302;28;19920;-61
2021/12/09 11:52:19;;;;;;;28.02;14.52;;;2.80;99.90;;;;;;5093929;28;20503;-61
2021/12/09 11:54:54;;;;;;;28.48;14.95;;;2.80;99.90;;;;;;5094458;28;20044;-61
2021/12/09 12:11:55;;;;;;;33.67;14.98;;;3.00;99.90;;;;;;5093627;28;20138;-61
2021/12/09 12:14:33;;;;;;;27.73;15.43;;;3.00;99.90;;;;;;5092705;28;20096;-59
2021/12/09 12:19:51;;;;;;;;;;;3.00;99.90;;;;;;5097830;28;20048;-59
2021/12/09 12:28:30;;;;;;;34.65;16.75;;;3.10;99.90;;;;;;5092563;28;20060;-60
2021/12/09 12:34:36;;;;;;;34.15;17.77;;;3.10;99.90;;;;;;5093446;28;20056;-59
2021/12/09 12:39:45;;;;;;;35.70;17.23;;;3.20;99.90;;;;;;5093944;28;20056;-60
2021/12/09 12:42:19;;;;;;;34.42;17.65;;;3.20;99.90;;;;;;5096005;28;20036;-60
2021/12/09 12:45:14;;;;;;;37.55;18.15;;;3.30;99.90;;;;;;5086110;28;20052;-60
2021/12/09 12:47:48;;;;;;;36.90;19.65;;;3.30;99.90;;;;;;5100370;28;20052;-61
2021/12/09 12:50:16;;;;;;;37.38;19.17;;;3.30;99.90;;;;;;5073684;28;20372;-59
2021/12/09 12:52:43;;;;;;;37.70;19.48;;;3.30;99.90;;;;;;5096203;28;20050;-60
2021/12/09 12:55:15;;;;;;;36.67;19.48;;;3.30;99.90;;;;;;5102100;28;20044;-61
2021/12/09 12:57:48;;;;;;;37.97;23.17;;;3.30;99.90;;;;;;5098393;28;20048;-60
2021/12/09 13:00:19;;;;;;;45.40;28.92;;;3.30;99.90;;;;;;5101362;28;20059;-59
2021/12/09 13:05:57;;;;;;;35.17;20.13;;;3.40;99.90;;;;;;5105686;28;20068;-59
2021/12/09 13:11:49;;;;;;;32.08;17.00;;;3.40;99.90;;;;;;5076310;28;20060;-60
2021/12/09 13:14:23;;;;;;;36.50;18.80;;;3.40;99.90;;;;;;5076629;28;20078;-60
2021/12/09 13:17:26;;;;;;;29.75;17.70;;;3.40;99.90;;;;;;5075770;28;20105;-61
2021/12/09 13:20:03;;;;;;;30.92;17.75;;;3.40;99.90;;;;;;5074491;28;20488;-60
2021/12/09 13:22:38;;;;;;;29.02;16.35;;;3.40;99.90;;;;;;5075152;28;20067;-62
2021/12/09 13:25:18;;;;;;;33.45;18.23;;;3.50;99.90;;;;;;5076552;28;20048;-61
2021/12/09 13:27:58;;;;;;;34.28;17.20;;;3.50;99.90;;;;;;5076358;28;20056;-60
2021/12/09 13:55:16;;;;;;;34.90;17.40;;;3.50;99.90;;;;;;5095447;28;20084;-60
2021/12/09 13:58:20;;;;;;;30.10;17.02;;;3.50;99.90;;;;;;5095207;28;20048;-61
2021/12/09 14:00:47;;;;;;;32.42;17.75;;;3.50;99.90;;;;;;5095361;28;20051;-62
2021/12/09 14:03:20;;;;;;;32.72;17.67;;;3.50;99.90;;;;;;5095997;28;20420;-62
2021/12/09 14:05:55;;;;;;;31.23;17.52;;;3.60;99.90;;;;;;5077855;28;20093;-61
2021/12/09 14:08:33;;;;;;;32.95;17.23;;;3.60;99.90;;;;;;5096033;28;20377;-61
2021/12/09 14:11:48;;;;;;;28.02;16.90;;;3.50;99.90;;;;;;5095847;28;20043;-61
2021/12/09 14:14:40;;;;;;;34.42;16.85;;;3.60;99.90;;;;;;5075067;28;20136;-60
2021/12/09 14:17:10;;;;;;;26.15;16.42;;;3.60;99.90;;;;;;5093898;28;20048;-59
2021/12/09 14:19:58;;;;;;;29.63;17.13;;;3.60;99.90;;;;;;5095562;28;20115;-60
2021/12/09 14:22:39;;;;;;;31.10;16.80;;;3.60;99.90;;;;;;5095441;28;20044;-59
2021/12/09 14:25:20;;;;;;;28.08;16.48;;;3.60;99.90;;;;;;5093542;28;20376;-60
2021/12/09 14:27:49;;;;;;;32.22;16.23;;;3.60;99.90;;;;;;5094628;28;20396;-60
2021/12/09 14:30:15;;;;;;;28.25;16.40;;;3.60;99.90;;;;;;5094265;28;20052;-60
2021/12/09 14:32:47;;;;;;;31.00;16.00;;;3.60;99.90;;;;;;5094305;28;20129;-60
2021/12/09 14:35:23;;;;;;;33.00;15.52;;;3.60;99.90;;;;;;5092946;28;20396;-62
2021/12/09 14:37:51;;;;;;;32.70;15.60;;;3.60;99.90;;;;;;5102345;28;20053;-60
2021/12/09 14:40:20;;;;;;;28.13;15.25;;;3.60;99.90;;;;;;5104508;28;20499;-60
2021/12/09 14:42:51;;;;;;;29.90;15.55;;;3.60;99.90;;;;;;5084502;28;20057;-60
2021/12/09 14:45:17;;;;;;;29.80;15.45;;;3.60;99.90;;;;;;5084327;28;20440;-60
2021/12/09 14:48:03;;;;;;;26.27;15.40;;;3.60;99.90;;;;;;5086213;28;20072;-62
2021/12/09 14:50:33;;;;;;;31.48;15.85;;;3.70;99.90;;;;;;5084643;28;20081;-60
2021/12/09 14:52:59;;;;;;;28.65;15.82;;;3.60;99.90;;;;;;5083994;28;20416;-60
2021/12/09 14:55:28;;;;;;;29.95;15.73;;;3.60;99.90;;;;;;5082981;28;20044;-60
2021/12/09 14:58:14;;;;;;;28.40;15.30;;;3.60;99.90;;;;;;5085032;28;20043;-61
2021/12/09 15:00:55;;;;;;;29.20;16.27;;;3.60;99.90;;;;;;5083495;28;20059;-59
2021/12/09 15:03:43;;;;;;;30.42;16.58;;;3.70;99.90;;;;;;5084517;28;20084;-59
2021/12/09 15:06:24;;;;;;;28.02;16.73;;;3.60;99.90;;;;;;5084247;28;20059;-60
2021/12/09 15:08:56;;;;;;;31.73;15.93;;;3.70;99.90;;;;;;5085227;28;20044;-60
2021/12/09 15:11:22;;;;;;;28.58;15.93;;;3.70;99.90;;;;;;5084541;28;20098;-59
2021/12/09 15:13:51;;;;;;;29.75;15.48;;;3.70;99.90;;;;;;5081844;28;20048;-59
2021/12/09 15:16:22;;;;;;;31.17;16.27;;;3.70;99.90;;;;;;5084106;28;20408;-60
2021/12/09 15:18:49;;;;;;;31.88;16.70;;;3.70;99.90;;;;;;5083936;28;20101;-60
2021/12/09 15:21:18;;;;;;;29.83;15.57;;;3.70;99.90;;;;;;5082253;28;20045;-60
2021/12/09 15:23:52;;;;;;;34.45;19.20;;;3.70;99.90;;;;;;5082036;28;20127;-60
2021/12/09 15:26:27;;;;;;;28.58;16.85;;;3.70;99.90;;;;;;5082238;28;20071;-61
2021/12/09 15:29:17;;;;;;;30.40;18.42;;;3.70;99.90;;;;;;5083250;28;20083;-60
2021/12/09 15:31:46;;;;;;;31.38;16.60;;;3.70;99.90;;;;;;5083448;28;20095;-61
2021/12/09 15:34:15;;;;;;;31.38;17.65;;;3.70;99.90;;;;;;5082609;28;20045;-61
2021/12/09 15:36:43;;;;;;;27.75;18.25;;;3.80;99.90;;;;;;5083437;28;20492;-59
2021/12/09 15:39:15;;;;;;;30.52;16.88;;;3.80;99.90;;;;;;5079034;28;20539;-60
2021/12/09 15:41:43;;;;;;;29.00;16.48;;;3.80;99.90;;;;;;5073031;28;20507;-60
2021/12/09 15:44:14;;;;;;;30.08;16.38;;;3.80;99.90;;;;;;5072475;28;20048;-60
2021/12/09 15:46:58;;;;;;;27.70;16.83;;;3.80;99.90;;;;;;5091500;28;20040;-60
2021/12/09 15:49:27;;;;;;;27.58;16.08;;;3.80;99.90;;;;;;5107396;28;20495;-61
2021/12/09 15:51:56;;;;;;;30.02;16.95;;;3.80;99.90;;;;;;5114421;28;20086;-62
2021/12/09 15:54:27;;;;;;;28.60;16.85;;;3.80;99.90;;;;;;5103680;28;20040;-60
2021/12/09 15:57:11;;;;;;;28.42;17.08;;;3.80;99.90;;;;;;5103957;28;20078;-61
2021/12/09 15:59:37;;;;;;;30.33;17.58;;;3.80;99.90;;;;;;5103257;28;20047;-61
2021/12/09 16:02:04;;;;;;;;;;;3.90;99.90;;;;;;5100851;28;20069;-63
2021/12/09 16:04:30;;;;;;;30.45;16.85;;;3.80;99.90;;;;;;5102891;28;19926;-61
2021/12/09 16:06:58;;;;;;;31.17;16.95;;;3.80;99.90;;;;;;5103951;28;20511;-62
2021/12/09 16:09:24;;;;;;;31.27;16.63;;;3.80;99.90;;;;;;5101908;28;20377;-62
2021/12/09 16:12:35;;;;;;;27.33;17.10;;;3.80;99.90;;;;;;5106639;28;20488;-62
2021/12/09 16:15:02;;;;;;;27.88;16.65;;;3.90;99.90;;;;;;5095894;28;20036;-59
2021/12/09 16:17:34;;;;;;;29.00;16.40;;;3.90;99.90;;;;;;5104122;28;20043;-60
2021/12/09 16:20:05;;;;;;;30.70;18.05;;;3.90;99.90;;;;;;5101680;28;20057;-60
2021/12/09 16:22:31;;;;;;;30.98;17.23;;;3.90;99.90;;;;;;5101960;28;20044;-60
2021/12/09 16:25:06;;;;;;;28.30;16.92;;;3.90;99.90;;;;;;5101672;28;20044;-60
2021/12/09 16:27:35;;;;;;;25.27;16.20;;;3.90;99.90;;;;;;5099078;28;20032;-60
2021/12/09 16:30:06;;;;;;;27.08;16.70;;;3.90;99.90;;;;;;5091395;28;20051;-60
2021/12/09 16:32:32;;;;;;;26.77;16.92;;;3.90;99.90;;;;;;5090843;28;20044;-60
2021/12/09 16:34:58;;;;;;;30.17;17.85;;;3.90;99.90;;;;;;5101203;28;20113;-60
2021/12/09 16:37:23;;;;;;;23.67;15.80;;;3.90;99.90;;;;;;5103866;28;20079;-62
2021/12/09 16:39:50;;;;;;;29.83;17.48;;;4.00;99.90;;;;;;5107292;28;20043;-60
2021/12/09 16:42:16;;;;;;;30.77;18.17;;;4.00;99.90;;;;;;5097051;28;20093;-61
2021/12/09 16:44:42;;;;;;;27.45;17.73;;;3.90;99.90;;;;;;5090777;28;20045;-61
2021/12/09 16:47:08;;;;;;;34.33;18.38;;;3.90;99.90;;;;;;5077123;28;20094;-60
2021/12/09 16:49:34;;;;;;;29.00;18.17;;;3.90;99.90;;;;;;5077197;28;20049;-61
2021/12/09 16:52:00;;;;;;;28.00;17.80;;;3.90;99.90;;;;;;5076956;28;20135;-61
2021/12/09 16:54:33;;;;;;;30.27;18.67;;;3.90;99.90;;;;;;5075761;28;20058;-61
2021/12/09 16:57:18;;;;;;;28.77;18.23;;;4.00;99.90;;;;;;5075703;28;20124;-61
2021/12/09 16:59:44;;;;;;;30.45;19.23;;;4.00;99.90;;;;;;5077035;28;20520;-62
2021/12/09 17:02:11;;;;;;;28.15;19.25;;;4.00;99.90;;;;;;5075729;28;20128;-61
2021/12/09 17:04:42;;;;;;;33.08;20.17;;;4.00;99.90;;;;;;5075807;28;20044;-61
2021/12/09 17:07:09;;;;;;;32.92;19.85;;;3.90;99.90;;;;;;5076893;28;20047;-61
2021/12/09 17:09:36;;;;;;;33.95;20.13;;;4.00;99.90;;;;;;5059350;28;20049;-61
2021/12/09 17:12:03;;;;;;;31.48;20.48;;;4.00;99.90;;;;;;5075624;28;20078;-61
2021/12/09 17:14:30;;;;;;;29.98;20.13;;;4.00;99.90;;;;;;5075355;28;20094;-61
2021/12/09 17:16:58;;;;;;;28.70;20.17;;;4.00;99.90;;;;;;5074831;28;20057;-61
2021/12/09 17:19:24;;;;;;;31.88;20.08;;;4.00;99.90;;;;;;5076052;28;20114;-62
2021/12/09 17:21:50;;;;;;;33.70;21.52;;;4.00;99.90;;;;;;5076194;28;20072;-62
2021/12/09 17:24:16;;;;;;;;;;;4.10;99.90;;;;;;5075906;28;20136;-61
2021/12/09 17:26:44;;;;;;;31.23;20.58;;;4.10;99.90;;;;;;5098441;28;19993;-61
2021/12/09 17:29:12;;;;;;;30.63;20.90;;;4.10;99.90;;;;;;5104967;28;20054;-61
2021/12/09 17:31:43;;;;;;;34.53;21.67;;;4.10;99.90;;;;;;5107399;28;20368;-61
2021/12/09 17:34:10;;;;;;;34.20;22.88;;;4.10;99.90;;;;;;5106631;28;20044;-61
2021/12/09 17:36:37;;;;;;;36.55;23.27;;;4.10;99.90;;;;;;5105205;28;20040;-62
2021/12/09 17:39:07;;;;;;;33.33;23.05;;;4.10;99.90;;;;;;5105459;28;20048;-63
2021/12/09 17:41:33;;;;;;;38.45;23.75;;;4.10;99.90;;;;;;5106241;28;20678;-63
2021/12/09 17:44:00;;;;;;;34.95;24.00;;;4.10;99.90;;;;;;5104035;28;20075;-61
2021/12/09 17:46:27;;;;;;;38.15;24.05;;;4.20;99.90;;;;;;5104275;28;20052;-61
2021/12/09 17:48:52;;;;;;;40.80;24.08;;;4.20;99.90;;;;;;5104779;28;20058;-61
2021/12/09 17:51:19;;;;;;;37.92;24.40;;;4.20;99.90;;;;;;5107101;28;20048;-62
2021/12/09 17:53:46;;;;;;;38.22;24.10;;;4.20;99.90;;;;;;5105628;28;20098;-61
2021/12/09 17:56:13;;;;;;;32.78;24.05;;;4.20;99.90;;;;;;5104039;28;20047;-61
2021/12/09 17:58:43;;;;;;;41.00;26.92;;;4.20;99.90;;;;;;5105842;28;20051;-62
2021/12/09 18:01:11;;;;;;;38.97;27.52;;;4.20;99.90;;;;;;5106063;28;20395;-61
2021/12/09 18:03:38;;;;;;;45.67;31.17;;;4.20;99.90;;;;;;5106030;28;20504;-62
2021/12/09 18:06:04;;;;;;;43.35;28.20;;;4.20;99.90;;;;;;5103988;28;20093;-62
2021/12/09 18:08:30;;;;;;;35.85;25.33;;;4.20;99.90;;;;;;5105292;27;20036;-61
2021/12/09 18:10:56;;;;;;;38.63;25.00;;;4.30;99.90;;;;;;5080834;28;20440;-61
2021/12/09 18:13:22;;;;;;;40.75;26.63;;;4.20;99.90;;;;;;5104189;28;20557;-61
2021/12/09 18:15:51;;;;;;;39.60;25.63;;;4.30;99.90;;;;;;5101851;28;20135;-62
2021/12/09 18:18:20;;;;;;;35.25;24.95;;;4.20;99.90;;;;;;5103005;28;20058;-61
2021/12/09 18:20:47;;;;;;;36.58;25.42;;;4.30;99.90;;;;;;5107019;28;20112;-63
2021/12/09 18:23:14;;;;;;;40.17;26.02;;;4.30;99.90;;;;;;5108762;28;20044;-61
2021/12/09 18:25:40;;;;;;;;;;;4.30;99.90;;;;;;5107989;28;20539;-61
2021/12/09 18:28:06;;;;;;;37.40;25.33;;;4.30;99.90;;;;;;5103014;28;19920;-61
2021/12/09 18:30:35;;;;;;;37.55;25.85;;;4.30;99.90;;;;;;5105458;28;20066;-61
2021/12/09 18:33:04;;;;;;;37.80;25.75;;;4.30;99.90;;;;;;5103696;28;20052;-61
2021/12/09 18:35:33;;;;;;;38.63;26.48;;;4.30;99.90;;;;;;5104927;28;20042;-62
2021/12/09 18:38:02;;;;;;;42.50;27.42;;;4.30;99.90;;;;;;5105883;28;20040;-61
2021/12/09 18:40:32;;;;;;;41.47;27.27;;;4.30;99.90;;;;;;5102580;28;20048;-61
2021/12/09 18:42:59;;;;;;;37.55;26.45;;;4.30;99.90;;;;;;5105080;28;20048;-61
2021/12/09 18:45:27;;;;;;;40.92;28.77;;;4.30;99.90;;;;;;5103814;28;20044;-61
2021/12/09 18:47:55;;;;;;;43.13;26.98;;;4.30;99.90;;;;;;5105529;28;20082;-62
2021/12/09 18:50:25;;;;;;;41.55;27.30;;;4.30;99.90;;;;;;5104386;28;20044;-61
2021/12/09 18:52:54;;;;;;;44.58;28.27;;;4.30;99.90;;;;;;5101432;28;20055;-61
2021/12/09 18:55:20;;;;;;;46.10;28.13;;;4.30;99.90;;;;;;5103335;28;20051;-60
2021/12/09 18:57:46;;;;;;;;;;;4.30;99.90;;;;;;5097962;28;20055;-61
2021/12/09 19:00:14;;;;;;;47.75;30.45;;;4.30;99.90;;;;;;5093126;28;19920;-60
2021/12/09 19:02:41;;;;;;;42.47;28.00;;;4.30;99.90;;;;;;5093791;28;20047;-61
2021/12/09 19:05:09;;;;;;;42.88;27.55;;;4.30;99.90;;;;;;5082055;28;20063;-61
2021/12/09 19:07:35;;;;;;;47.97;29.63;;;4.30;99.90;;;;;;5073702;28;20059;-61
2021/12/09 19:10:06;;;;;;;44.53;28.85;;;4.30;99.90;;;;;;5074342;28;20500;-61
2021/12/09 19:12:32;;;;;;;42.65;29.15;;;4.40;99.90;;;;;;5074769;28;20094;-61
2021/12/09 19:14:58;;;;;;;50.00;30.45;;;4.40;99.90;;;;;;5082591;28;20491;-60
2021/12/09 19:17:41;;;;;;;;;;;4.40;99.90;;;;;;5113930;28;20503;-60
2021/12/09 19:20:09;;;;;;;41.38;28.15;;;4.40;99.90;;;;;;5113877;28;19979;-61
2021/12/09 19:22:34;;;;;;;45.50;29.85;;;4.40;99.90;;;;;;5113779;28;20047;-60
2021/12/09 19:25:00;;;;;;;46.55;28.45;;;4.40;99.90;;;;;;5114840;28;20433;-60
2021/12/09 19:27:26;;;;;;;46.58;30.38;;;4.40;99.90;;;;;;5115392;28;20076;-60
2021/12/09 19:29:52;;;;;;;46.05;27.92;;;4.40;99.90;;;;;;5113642;28;20047;-60
2021/12/09 19:32:17;;;;;;;48.38;29.25;;;4.40;99.90;;;;;;5114606;28;20066;-59
2021/12/09 19:34:43;;;;;;;45.10;28.88;;;4.40;99.90;;;;;;5113271;28;20043;-60
2021/12/09 19:37:09;;;;;;;49.75;30.95;;;4.40;99.90;;;;;;5096513;28;20070;-61
2021/12/09 19:39:37;;;;;;;45.72;30.50;;;4.40;99.90;;;;;;5114612;28;20082;-61
2021/12/09 19:42:03;;;;;;;51.53;29.88;;;4.40;99.90;;;;;;5114446;28;20047;-61
2021/12/09 19:44:28;;;;;;;44.90;29.27;;;4.40;99.90;;;;;;5106879;28;20051;-61
2021/12/09 19:46:54;;;;;;;43.72;28.70;;;4.40;99.90;;;;;;5104679;28;20059;-60
2021/12/09 19:49:20;;;;;;;43.03;28.30;;;4.50;99.90;;;;;;5101737;28;20071;-61
2021/12/09 19:51:47;;;;;;;47.08;30.05;;;4.40;99.90;;;;;;5099039;28;20040;-61
2021/12/09 19:54:14;;;;;;;48.83;30.00;;;4.40;99.90;;;;;;5093990;28;20044;-62
2021/12/09 19:56:39;;;;;;;47.47;30.38;;;4.40;99.90;;;;;;5092618;28;20373;-61
2021/12/09 19:59:05;;;;;;;48.72;30.88;;;4.40;99.90;;;;;;5093666;28;20055;-60
2021/12/09 20:01:32;;;;;;;46.13;30.30;;;4.40;99.90;;;;;;5093988;28;20052;-60
2021/12/09 20:03:58;;;;;;;45.45;29.40;;;4.40;99.90;;;;;;5090439;28;20093;-61
2021/12/09 20:06:24;;;;;;;47.60;29.73;;;4.40;99.90;;;;;;5072451;28;20382;-60
2021/12/09 20:08:54;;;;;;;47.55;30.65;;;4.40;99.90;;;;;;5072980;28;20047;-61
2021/12/09 20:11:20;;;;;;;48.38;30.23;;;4.40;99.90;;;;;;5072470;28;20086;-61
2021/12/09 20:13:50;;;;;;;47.40;31.38;;;4.40;99.90;;;;;;5074050;28;20469;-61
2021/12/09 20:16:22;;;;;;;53.90;33.15;;;4.50;99.90;;;;;;5072262;28;20110;-60
2021/12/09 20:18:48;;;;;;;54.60;30.80;;;4.40;99.90;;;;;;5073607;28;20139;-60
2021/12/09 20:21:20;;;;;;;51.97;31.15;;;4.40;99.90;;;;;;5073548;28;20096;-61
2021/12/09 20:23:49;;;;;;;53.83;32.28;;;4.50;99.90;;;;;;5073391;28;20048;-61
2021/12/09 20:26:15;;;;;;;49.60;32.03;;;4.40;99.90;;;;;;5073248;28;20562;-61
2021/12/09 20:28:41;;;;;;;56.17;31.77;;;4.40;99.90;;;;;;5073468;28;20123;-61
2021/12/09 20:31:07;;;;;;;52.10;32.20;;;4.40;99.90;;;;;;5073501;28;20504;-61
2021/12/09 20:33:32;;;;;;;56.03;32.63;;;4.40;99.90;;;;;;5074185;28;20052;-61
2021/12/09 20:35:59;;;;;;;57.47;33.03;;;4.50;99.90;;;;;;5079229;28;20071;-61
2021/12/09 20:38:26;;;;;;;53.85;31.40;;;4.50;99.90;;;;;;5103728;28;20078;-61
2021/12/09 20:40:52;;;;;;;56.33;33.17;;;4.40;99.90;;;;;;5102125;28;20044;-62
2021/12/09 20:43:18;;;;;;;63.00;33.05;;;4.50;99.90;;;;;;5099818;28;20040;-62
2021/12/09 20:45:44;;;;;;;54.95;33.53;;;4.50;99.90;;;;;;5102932;28;20044;-61
2021/12/09 20:48:10;;;;;;;59.25;32.75;;;4.50;99.90;;;;;;5104143;28;20501;-61
2021/12/09 20:50:39;;;;;;;63.08;39.85;;;4.50;99.90;;;;;;5096315;28;20078;-61
2021/12/09 20:53:23;;;;;;;74.53;39.47;;;4.40;99.90;;;;;;5092117;28;20048;-62
2021/12/09 20:55:50;;;;;;;69.72;35.75;;;4.40;99.90;;;;;;5097127;28;20601;-61
2021/12/09 20:58:18;;;;;;;57.63;33.58;;;4.40;99.90;;;;;;5099725;28;20496;-60
2021/12/09 21:00:45;;;;;;;59.30;33.10;;;4.50;99.90;;;;;;5093357;28;20090;-60
2021/12/09 21:03:11;;;;;;;58.63;34.95;;;4.40;99.90;;;;;;5092108;28;20037;-60
2021/12/09 21:05:37;;;;;;;63.65;34.38;;;4.40;99.90;;;;;;5075558;28;20053;-60
2021/12/09 21:08:03;;;;;;;62.63;33.67;;;4.40;99.90;;;;;;5072423;28;20330;-60
2021/12/09 21:10:31;;;;;;;57.13;33.53;;;4.40;99.90;;;;;;5071519;28;20052;-60
2021/12/09 21:13:00;;;;;;;64.05;34.38;;;4.30;99.90;;;;;;5070835;28;20055;-63
2021/12/09 21:15:26;;;;;;;70.28;34.85;;;4.30;99.90;;;;;;5071225;28;20044;-62
2021/12/09 21:17:53;;;;;;;68.15;35.28;;;4.30;99.90;;;;;;5072873;28;20485;-61
2021/12/09 21:20:19;;;;;;;65.60;35.08;;;4.30;99.90;;;;;;5072000;28;20045;-61
2021/12/09 21:22:45;;;;;;;68.15;38.53;;;4.30;99.90;;;;;;5073623;28;20044;-61
2021/12/09 21:25:13;;;;;;;64.47;35.47;;;4.30;99.90;;;;;;5076514;28;20099;-60
2021/12/09 21:27:39;;;;;;;61.00;34.95;;;4.40;99.90;;;;;;5075303;28;20095;-61
2021/12/09 21:30:07;;;;;;;63.83;35.33;;;4.30;99.90;;;;;;5076977;28;20044;-60
2021/12/09 21:32:33;;;;;;;63.50;34.75;;;4.30;99.90;;;;;;5076470;28;20044;-61
2021/12/09 21:35:16;;;;;;;62.92;34.95;;;4.30;99.90;;;;;;5075290;28;20361;-61
2021/12/09 21:37:54;;;;;;;61.47;35.42;;;4.30;99.90;;;;;;5075903;28;20393;-61
2021/12/09 21:40:22;;;;;;;59.20;34.25;;;4.30;99.90;;;;;;5076157;28;20048;-61
2021/12/09 21:42:50;;;;;;;67.70;34.55;;;4.30;99.90;;;;;;5075027;28;20049;-61
2021/12/09 21:45:17;;;;;;;68.13;35.00;;;4.30;99.90;;;;;;5058554;28;20049;-62
2021/12/09 21:47:43;;;;;;;66.60;35.70;;;4.30;99.90;;;;;;5076084;28;20049;-61
2021/12/09 21:50:10;;;;;;;62.60;35.15;;;4.30;99.90;;;;;;5075997;28;20045;-62
2021/12/09 21:52:36;;;;;;;62.47;34.97;;;4.30;99.90;;;;;;5079535;28;20044;-62
2021/12/09 21:55:04;;;;;;;62.13;33.45;;;4.40;99.90;;;;;;5103317;28;20047;-65
